sensor_id;sensor_type;location;lat;lon;timestamp;P1;durP1;ratioP1;P2;durP2;ratioP2
17937;SDS011;16051;53.024;8.630;2022-08-30T00:03:00;1.40;;;1.30;;
17937;SDS011;16051;53.024;8.630;2022-08-30T00:07:04;3.30;;;1.37;;
17937;SDS011;16051;53.024;8.630;2022-08-30T00:11:14;2.17;;;1.13;;
17937;SDS011;16051;53.024;8.630;2022-08-30T00:15:22;1.47;;;1.20;;
17937;SDS011;16051;53.024;8.630;2022-08-30T00:19:26;1.23;;;1.13;;
17937;SDS011;16051;53.024;8.630;2022-08-30T00:23:28;1.80;;;1.10;;
17937;SDS011;16051;53.024;8.630;2022-08-30T00:27:30;2.10;;;1.10;;
17937;SDS011;16051;53.024;8.630;2022-08-30T00:31:34;1.77;;;1.67;;
17937;SDS011;16051;53.024;8.630;2022-08-30T00:35:49;1.83;;;1.40;;
17937;SDS011;16051;53.024;8.630;2022-08-30T00:39:51;1.80;;;1.10;;
17937;SDS011;16051;53.024;8.630;2022-08-30T00:43:53;1.33;;;1.20;;
17937;SDS011;16051;53.024;8.630;2022-08-30T00:47:57;2.30;;;1.30;;
17937;SDS011;16051;53.024;8.630;2022-08-30T00:52:00;1.47;;;1.30;;
17937;SDS011;16051;53.024;8.630;2022-08-30T00:56:06;2.20;;;1.20;;
17937;SDS011;16051;53.024;8.630;2022-08-30T01:04:38;2.13;;;1.40;;
17937;SDS011;16051;53.024;8.630;2022-08-30T01:08:45;2.10;;;1.30;;
17937;SDS011;16051;53.024;8.630;2022-08-30T01:12:48;1.60;;;1.13;;
17937;SDS011;16051;53.024;8.630;2022-08-30T01:16:50;1.57;;;1.20;;
17937;SDS011;16051;53.024;8.630;2022-08-30T01:20:56;1.67;;;1.37;;
17937;SDS011;16051;53.024;8.630;2022-08-30T01:29:35;2.93;;;1.53;;
17937;SDS011;16051;53.024;8.630;2022-08-30T01:33:38;2.30;;;1.57;;
17937;SDS011;16051;53.024;8.630;2022-08-30T01:37:40;2.00;;;1.67;;
17937;SDS011;16051;53.024;8.630;2022-08-30T01:41:45;1.70;;;1.60;;
17937;SDS011;16051;53.024;8.630;2022-08-30T01:45:48;1.50;;;1.40;;
17937;SDS011;16051;53.024;8.630;2022-08-30T01:49:50;1.83;;;1.30;;
17937;SDS011;16051;53.024;8.630;2022-08-30T01:58:21;1.43;;;1.30;;
17937;SDS011;16051;53.024;8.630;2022-08-30T02:02:24;1.70;;;1.47;;
17937;SDS011;16051;53.024;8.630;2022-08-30T02:06:29;1.90;;;1.60;;
17937;SDS011;16051;53.024;8.630;2022-08-30T02:10:32;2.70;;;1.80;;
17937;SDS011;16051;53.024;8.630;2022-08-30T02:14:36;2.67;;;1.50;;
17937;SDS011;16051;53.024;8.630;2022-08-30T02:23:00;1.80;;;1.33;;
17937;SDS011;16051;53.024;8.630;2022-08-30T02:27:02;1.80;;;1.63;;
17937;SDS011;16051;53.024;8.630;2022-08-30T02:31:06;1.50;;;1.27;;
17937;SDS011;16051;53.024;8.630;2022-08-30T02:35:14;1.93;;;1.60;;
17937;SDS011;16051;53.024;8.630;2022-08-30T02:39:17;1.50;;;1.27;;
17937;SDS011;16051;53.024;8.630;2022-08-30T02:43:19;1.80;;;1.50;;
17937;SDS011;16051;53.024;8.630;2022-08-30T02:47:22;1.67;;;1.30;;
17937;SDS011;16051;53.024;8.630;2022-08-30T02:51:25;2.20;;;1.40;;
17937;SDS011;16051;53.024;8.630;2022-08-30T02:55:27;1.57;;;1.23;;
17937;SDS011;16051;53.024;8.630;2022-08-30T02:59:46;1.53;;;1.30;;
17937;SDS011;16051;53.024;8.630;2022-08-30T03:03:50;1.83;;;1.40;;
17937;SDS011;16051;53.024;8.630;2022-08-30T03:07:52;1.50;;;1.37;;
17937;SDS011;16051;53.024;8.630;2022-08-30T03:11:54;1.30;;;1.20;;
17937;SDS011;16051;53.024;8.630;2022-08-30T03:15:56;2.50;;;1.50;;
17937;SDS011;16051;53.024;8.630;2022-08-30T03:20:00;1.40;;;1.30;;
17937;SDS011;16051;53.024;8.630;2022-08-30T03:24:04;0.93;;;0.93;;
17937;SDS011;16051;53.024;8.630;2022-08-30T03:28:07;1.37;;;1.00;;
17937;SDS011;16051;53.024;8.630;2022-08-30T03:32:13;1.40;;;1.30;;
17937;SDS011;16051;53.024;8.630;2022-08-30T03:36:16;1.73;;;1.23;;
17937;SDS011;16051;53.024;8.630;2022-08-30T03:40:20;2.17;;;1.40;;
17937;SDS011;16051;53.024;8.630;2022-08-30T03:44:22;1.67;;;1.07;;
17937;SDS011;16051;53.024;8.630;2022-08-30T03:48:25;1.37;;;1.13;;
17937;SDS011;16051;53.024;8.630;2022-08-30T03:52:29;1.33;;;1.23;;
17937;SDS011;16051;53.024;8.630;2022-08-30T03:56:31;1.40;;;1.00;;
17937;SDS011;16051;53.024;8.630;2022-08-30T04:04:57;1.60;;;1.30;;
17937;SDS011;16051;53.024;8.630;2022-08-30T04:09:00;1.83;;;1.47;;
17937;SDS011;16051;53.024;8.630;2022-08-30T04:13:03;2.10;;;1.43;;
17937;SDS011;16051;53.024;8.630;2022-08-30T04:17:21;1.50;;;1.23;;
17937;SDS011;16051;53.024;8.630;2022-08-30T04:21:24;1.50;;;1.30;;
17937;SDS011;16051;53.024;8.630;2022-08-30T04:25:29;1.53;;;1.40;;
17937;SDS011;16051;53.024;8.630;2022-08-30T04:29:31;2.47;;;1.20;;
17937;SDS011;16051;53.024;8.630;2022-08-30T04:33:34;1.63;;;1.10;;
17937;SDS011;16051;53.024;8.630;2022-08-30T04:42:22;1.10;;;1.00;;
17937;SDS011;16051;53.024;8.630;2022-08-30T04:46:24;1.77;;;1.30;;
17937;SDS011;16051;53.024;8.630;2022-08-30T04:50:26;2.90;;;1.40;;
17937;SDS011;16051;53.024;8.630;2022-08-30T04:54:28;1.40;;;1.30;;
17937;SDS011;16051;53.024;8.630;2022-08-30T04:58:51;2.00;;;1.00;;
17937;SDS011;16051;53.024;8.630;2022-08-30T05:11:46;1.87;;;1.50;;
17937;SDS011;16051;53.024;8.630;2022-08-30T05:15:50;2.93;;;1.23;;
17937;SDS011;16051;53.024;8.630;2022-08-30T05:19:52;1.77;;;1.30;;
17937;SDS011;16051;53.024;8.630;2022-08-30T05:23:55;1.70;;;1.40;;
17937;SDS011;16051;53.024;8.630;2022-08-30T05:27:59;1.63;;;1.53;;
17937;SDS011;16051;53.024;8.630;2022-08-30T05:32:03;1.70;;;1.60;;
17937;SDS011;16051;53.024;8.630;2022-08-30T05:36:06;1.90;;;1.80;;
17937;SDS011;16051;53.024;8.630;2022-08-30T05:40:09;2.17;;;1.70;;
17937;SDS011;16051;53.024;8.630;2022-08-30T05:44:15;3.37;;;2.00;;
17937;SDS011;16051;53.024;8.630;2022-08-30T05:48:19;2.03;;;1.77;;
17937;SDS011;16051;53.024;8.630;2022-08-30T05:52:21;3.40;;;1.97;;
17937;SDS011;16051;53.024;8.630;2022-08-30T05:56:23;4.60;;;2.00;;
17937;SDS011;16051;53.024;8.630;2022-08-30T06:00:28;3.40;;;2.00;;
17937;SDS011;16051;53.024;8.630;2022-08-30T06:04:31;4.00;;;2.10;;
17937;SDS011;16051;53.024;8.630;2022-08-30T06:13:13;3.30;;;1.47;;
17937;SDS011;16051;53.024;8.630;2022-08-30T06:17:15;2.70;;;1.90;;
17937;SDS011;16051;53.024;8.630;2022-08-30T06:21:20;3.87;;;2.30;;
17937;SDS011;16051;53.024;8.630;2022-08-30T06:25:28;2.90;;;2.00;;
17937;SDS011;16051;53.024;8.630;2022-08-30T06:29:31;2.50;;;2.00;;
17937;SDS011;16051;53.024;8.630;2022-08-30T06:33:33;6.30;;;2.27;;
17937;SDS011;16051;53.024;8.630;2022-08-30T06:37:37;4.60;;;2.00;;
17937;SDS011;16051;53.024;8.630;2022-08-30T06:41:39;2.30;;;1.83;;
17937;SDS011;16051;53.024;8.630;2022-08-30T06:45:42;3.67;;;2.00;;
17937;SDS011;16051;53.024;8.630;2022-08-30T06:49:44;2.20;;;2.00;;
17937;SDS011;16051;53.024;8.630;2022-08-30T06:53:48;4.30;;;2.27;;
17937;SDS011;16051;53.024;8.630;2022-08-30T07:02:11;6.17;;;2.33;;
17937;SDS011;16051;53.024;8.630;2022-08-30T07:10:51;3.00;;;1.97;;
17937;SDS011;16051;53.024;8.630;2022-08-30T07:15:11;5.23;;;2.53;;
17937;SDS011;16051;53.024;8.630;2022-08-30T07:19:15;4.57;;;2.20;;
17937;SDS011;16051;53.024;8.630;2022-08-30T07:23:23;3.67;;;1.70;;
17937;SDS011;16051;53.024;8.630;2022-08-30T07:27:26;5.07;;;2.10;;
17937;SDS011;16051;53.024;8.630;2022-08-30T07:31:29;3.97;;;2.07;;
17937;SDS011;16051;53.024;8.630;2022-08-30T07:35:34;3.83;;;1.93;;
17937;SDS011;16051;53.024;8.630;2022-08-30T07:39:37;4.37;;;2.10;;
17937;SDS011;16051;53.024;8.630;2022-08-30T07:43:41;3.03;;;2.00;;
17937;SDS011;16051;53.024;8.630;2022-08-30T07:47:43;4.43;;;2.20;;
17937;SDS011;16051;53.024;8.630;2022-08-30T07:51:45;5.00;;;2.13;;
17937;SDS011;16051;53.024;8.630;2022-08-30T07:55:47;3.80;;;2.20;;
17937;SDS011;16051;53.024;8.630;2022-08-30T07:59:51;4.10;;;2.20;;
17937;SDS011;16051;53.024;8.630;2022-08-30T08:08:15;3.53;;;2.33;;
17937;SDS011;16051;53.024;8.630;2022-08-30T08:12:17;2.27;;;2.00;;
17937;SDS011;16051;53.024;8.630;2022-08-30T08:16:22;3.40;;;2.30;;
17937;SDS011;16051;53.024;8.630;2022-08-30T08:20:26;6.33;;;2.70;;
17937;SDS011;16051;53.024;8.630;2022-08-30T08:24:29;3.30;;;2.17;;
17937;SDS011;16051;53.024;8.630;2022-08-30T08:28:31;2.93;;;2.17;;
17937;SDS011;16051;53.024;8.630;2022-08-30T08:32:34;3.07;;;1.90;;
17937;SDS011;16051;53.024;8.630;2022-08-30T08:36:37;2.50;;;2.30;;
17937;SDS011;16051;53.024;8.630;2022-08-30T08:40:41;3.47;;;2.00;;
17937;SDS011;16051;53.024;8.630;2022-08-30T08:44:57;4.20;;;2.20;;
17937;SDS011;16051;53.024;8.630;2022-08-30T08:49:06;2.77;;;2.30;;
17937;SDS011;16051;53.024;8.630;2022-08-30T08:53:11;3.23;;;2.10;;
17937;SDS011;16051;53.024;8.630;2022-08-30T08:57:40;2.53;;;2.10;;
17937;SDS011;16051;53.024;8.630;2022-08-30T09:01:43;2.53;;;2.00;;
17937;SDS011;16051;53.024;8.630;2022-08-30T09:05:48;2.27;;;2.10;;
17937;SDS011;16051;53.024;8.630;2022-08-30T09:09:53;2.90;;;2.30;;
17937;SDS011;16051;53.024;8.630;2022-08-30T09:14:00;3.80;;;2.50;;
17937;SDS011;16051;53.024;8.630;2022-08-30T09:18:06;2.00;;;1.90;;
17937;SDS011;16051;53.024;8.630;2022-08-30T09:22:18;2.73;;;2.07;;
17937;SDS011;16051;53.024;8.630;2022-08-30T09:26:27;4.33;;;2.17;;
17937;SDS011;16051;53.024;8.630;2022-08-30T09:35:20;3.93;;;2.40;;
17937;SDS011;16051;53.024;8.630;2022-08-30T09:39:28;4.00;;;2.30;;
17937;SDS011;16051;53.024;8.630;2022-08-30T09:43:36;2.63;;;2.30;;
17937;SDS011;16051;53.024;8.630;2022-08-30T09:47:47;3.43;;;2.17;;
17937;SDS011;16051;53.024;8.630;2022-08-30T09:51:59;3.30;;;1.83;;
17937;SDS011;16051;53.024;8.630;2022-08-30T09:56:28;2.60;;;2.00;;
17937;SDS011;16051;53.024;8.630;2022-08-30T10:00:41;3.60;;;1.77;;
17937;SDS011;16051;53.024;8.630;2022-08-30T10:05:06;3.07;;;1.70;;
17937;SDS011;16051;53.024;8.630;2022-08-30T10:09:27;2.10;;;1.80;;
17937;SDS011;16051;53.024;8.630;2022-08-30T10:13:44;2.30;;;2.10;;
17937;SDS011;16051;53.024;8.630;2022-08-30T10:18:06;2.10;;;1.90;;
17937;SDS011;16051;53.024;8.630;2022-08-30T10:22:17;2.70;;;2.00;;
17937;SDS011;16051;53.024;8.630;2022-08-30T10:26:27;3.60;;;2.17;;
17937;SDS011;16051;53.024;8.630;2022-08-30T10:30:36;2.87;;;2.30;;
17937;SDS011;16051;53.024;8.630;2022-08-30T10:34:46;3.10;;;1.93;;
17937;SDS011;16051;53.024;8.630;2022-08-30T10:38:54;3.60;;;1.97;;
17937;SDS011;16051;53.024;8.630;2022-08-30T10:43:00;3.40;;;2.20;;
17937;SDS011;16051;53.024;8.630;2022-08-30T10:47:12;2.33;;;2.13;;
17937;SDS011;16051;53.024;8.630;2022-08-30T10:51:29;2.23;;;2.13;;
17937;SDS011;16051;53.024;8.630;2022-08-30T10:55:40;2.00;;;1.90;;
17937;SDS011;16051;53.024;8.630;2022-08-30T10:59:51;3.80;;;1.90;;
17937;SDS011;16051;53.024;8.630;2022-08-30T11:04:10;2.13;;;1.60;;
17937;SDS011;16051;53.024;8.630;2022-08-30T11:08:52;1.63;;;1.33;;
17937;SDS011;16051;53.024;8.630;2022-08-30T11:13:21;2.13;;;1.70;;
17937;SDS011;16051;53.024;8.630;2022-08-30T11:17:27;1.77;;;1.50;;
17937;SDS011;16051;53.024;8.630;2022-08-30T11:21:34;2.00;;;1.60;;
17937;SDS011;16051;53.024;8.630;2022-08-30T11:25:48;1.40;;;1.30;;
17937;SDS011;16051;53.024;8.630;2022-08-30T11:29:53;1.20;;;1.10;;
17937;SDS011;16051;53.024;8.630;2022-08-30T11:34:09;1.03;;;1.03;;
17937;SDS011;16051;53.024;8.630;2022-08-30T11:38:16;1.40;;;1.00;;
17937;SDS011;16051;53.024;8.630;2022-08-30T11:42:43;1.20;;;0.97;;
17937;SDS011;16051;53.024;8.630;2022-08-30T11:46:47;2.53;;;0.80;;
17937;SDS011;16051;53.024;8.630;2022-08-30T11:50:52;1.87;;;1.00;;
17937;SDS011;16051;53.024;8.630;2022-08-30T11:59:44;2.33;;;1.00;;
17937;SDS011;16051;53.024;8.630;2022-08-30T12:04:00;1.83;;;1.07;;
17937;SDS011;16051;53.024;8.630;2022-08-30T12:08:09;2.87;;;1.20;;
17937;SDS011;16051;53.024;8.630;2022-08-30T12:13:02;2.03;;;1.30;;
17937;SDS011;16051;53.024;8.630;2022-08-30T12:17:12;1.43;;;0.90;;
17937;SDS011;16051;53.024;8.630;2022-08-30T12:21:39;1.33;;;1.07;;
17937;SDS011;16051;53.024;8.630;2022-08-30T12:25:42;3.60;;;1.07;;
17937;SDS011;16051;53.024;8.630;2022-08-30T12:29:49;1.10;;;0.80;;
17937;SDS011;16051;53.024;8.630;2022-08-30T12:33:55;1.90;;;0.83;;
17937;SDS011;16051;53.024;8.630;2022-08-30T12:38:01;1.00;;;0.90;;
17937;SDS011;16051;53.024;8.630;2022-08-30T12:42:11;0.80;;;0.80;;
17937;SDS011;16051;53.024;8.630;2022-08-30T12:46:24;1.90;;;1.00;;
17937;SDS011;16051;53.024;8.630;2022-08-30T12:50:32;1.13;;;0.80;;
17937;SDS011;16051;53.024;8.630;2022-08-30T12:58:47;1.03;;;0.70;;
17937;SDS011;16051;53.024;8.630;2022-08-30T13:07:31;1.00;;;0.90;;
17937;SDS011;16051;53.024;8.630;2022-08-30T13:11:35;1.80;;;1.07;;
17937;SDS011;16051;53.024;8.630;2022-08-30T13:15:51;2.63;;;1.10;;
17937;SDS011;16051;53.024;8.630;2022-08-30T13:24:28;1.53;;;0.80;;
17937;SDS011;16051;53.024;8.630;2022-08-30T13:28:30;2.20;;;0.90;;
17937;SDS011;16051;53.024;8.630;2022-08-30T13:32:43;1.00;;;0.85;;
17937;SDS011;16051;53.024;8.630;2022-08-30T13:36:46;1.92;;;1.77;;
17937;SDS011;16051;53.024;8.630;2022-08-30T13:41:04;1.90;;;1.80;;
17937;SDS011;16051;53.024;8.630;2022-08-30T13:45:08;2.92;;;1.90;;
17937;SDS011;16051;53.024;8.630;2022-08-30T13:53:30;2.87;;;1.70;;
17937;SDS011;16051;53.024;8.630;2022-08-30T13:57:34;1.43;;;1.43;;
17937;SDS011;16051;53.024;8.630;2022-08-30T14:01:37;2.60;;;1.50;;
17937;SDS011;16051;53.024;8.630;2022-08-30T14:05:40;3.07;;;1.70;;
17937;SDS011;16051;53.024;8.630;2022-08-30T14:09:44;3.83;;;1.83;;
17937;SDS011;16051;53.024;8.630;2022-08-30T14:13:48;1.70;;;1.60;;
17937;SDS011;16051;53.024;8.630;2022-08-30T14:17:51;1.80;;;1.70;;
17937;SDS011;16051;53.024;8.630;2022-08-30T14:21:54;1.40;;;1.30;;
17937;SDS011;16051;53.024;8.630;2022-08-30T14:25:56;1.30;;;1.20;;
17937;SDS011;16051;53.024;8.630;2022-08-30T14:30:00;1.37;;;1.27;;
17937;SDS011;16051;53.024;8.630;2022-08-30T14:34:04;1.67;;;1.10;;
17937;SDS011;16051;53.024;8.630;2022-08-30T14:38:09;2.00;;;1.20;;
17937;SDS011;16051;53.024;8.630;2022-08-30T14:42:11;1.10;;;1.00;;
17937;SDS011;16051;53.024;8.630;2022-08-30T14:46:15;2.47;;;1.03;;
17937;SDS011;16051;53.024;8.630;2022-08-30T14:50:17;2.37;;;1.27;;
17937;SDS011;16051;53.024;8.630;2022-08-30T14:54:20;1.33;;;0.80;;
17937;SDS011;16051;53.024;8.630;2022-08-30T14:58:24;3.20;;;0.93;;
17937;SDS011;16051;53.024;8.630;2022-08-30T15:02:28;1.93;;;0.70;;
17937;SDS011;16051;53.024;8.630;2022-08-30T15:06:30;1.60;;;0.93;;
17937;SDS011;16051;53.024;8.630;2022-08-30T15:14:59;1.90;;;0.70;;
17937;SDS011;16051;53.024;8.630;2022-08-30T15:19:03;0.77;;;0.70;;
17937;SDS011;16051;53.024;8.630;2022-08-30T15:23:08;1.23;;;0.90;;
17937;SDS011;16051;53.024;8.630;2022-08-30T15:27:10;2.77;;;0.93;;
17937;SDS011;16051;53.024;8.630;2022-08-30T15:35:54;0.80;;;0.60;;
17937;SDS011;16051;53.024;8.630;2022-08-30T15:40:01;1.17;;;0.97;;
17937;SDS011;16051;53.024;8.630;2022-08-30T15:44:04;1.10;;;0.60;;
17937;SDS011;16051;53.024;8.630;2022-08-30T15:48:07;0.67;;;0.67;;
17937;SDS011;16051;53.024;8.630;2022-08-30T15:52:10;1.53;;;0.70;;
17937;SDS011;16051;53.024;8.630;2022-08-30T15:56:12;0.63;;;0.50;;
17937;SDS011;16051;53.024;8.630;2022-08-30T16:00:15;0.80;;;0.80;;
17937;SDS011;16051;53.024;8.630;2022-08-30T16:04:18;1.47;;;0.70;;
17937;SDS011;16051;53.024;8.630;2022-08-30T16:08:22;1.33;;;0.80;;
17937;SDS011;16051;53.024;8.630;2022-08-30T16:12:35;1.37;;;0.70;;
17937;SDS011;16051;53.024;8.630;2022-08-30T16:16:37;1.53;;;0.70;;
17937;SDS011;16051;53.024;8.630;2022-08-30T16:20:40;0.67;;;0.60;;
17937;SDS011;16051;53.024;8.630;2022-08-30T16:24:45;0.83;;;0.60;;
17937;SDS011;16051;53.024;8.630;2022-08-30T16:28:47;1.17;;;0.53;;
17937;SDS011;16051;53.024;8.630;2022-08-30T16:32:53;2.13;;;1.00;;
17937;SDS011;16051;53.024;8.630;2022-08-30T16:36:55;0.93;;;0.70;;
17937;SDS011;16051;53.024;8.630;2022-08-30T16:40:58;0.80;;;0.70;;
17937;SDS011;16051;53.024;8.630;2022-08-30T16:45:05;1.27;;;0.90;;
17937;SDS011;16051;53.024;8.630;2022-08-30T16:49:08;1.37;;;0.80;;
17937;SDS011;16051;53.024;8.630;2022-08-30T16:53:11;0.80;;;0.77;;
17937;SDS011;16051;53.024;8.630;2022-08-30T16:57:22;1.63;;;0.70;;
17937;SDS011;16051;53.024;8.630;2022-08-30T17:01:24;1.03;;;0.93;;
17937;SDS011;16051;53.024;8.630;2022-08-30T17:05:27;4.87;;;1.23;;
17937;SDS011;16051;53.024;8.630;2022-08-30T17:13:57;1.33;;;0.73;;
17937;SDS011;16051;53.024;8.630;2022-08-30T17:17:59;1.67;;;0.80;;
17937;SDS011;16051;53.024;8.630;2022-08-30T17:22:01;0.93;;;0.80;;
17937;SDS011;16051;53.024;8.630;2022-08-30T17:26:04;1.23;;;1.00;;
17937;SDS011;16051;53.024;8.630;2022-08-30T17:30:09;1.10;;;1.00;;
17937;SDS011;16051;53.024;8.630;2022-08-30T17:34:12;0.90;;;0.80;;
17937;SDS011;16051;53.024;8.630;2022-08-30T17:38:15;4.00;;;0.97;;
17937;SDS011;16051;53.024;8.630;2022-08-30T17:42:17;2.00;;;0.90;;
17937;SDS011;16051;53.024;8.630;2022-08-30T17:46:21;1.10;;;0.80;;
17937;SDS011;16051;53.024;8.630;2022-08-30T17:50:23;0.77;;;0.70;;
17937;SDS011;16051;53.024;8.630;2022-08-30T17:54:26;1.23;;;1.10;;
17937;SDS011;16051;53.024;8.630;2022-08-30T17:58:30;1.67;;;0.90;;
17937;SDS011;16051;53.024;8.630;2022-08-30T18:02:35;1.47;;;0.90;;
17937;SDS011;16051;53.024;8.630;2022-08-30T18:06:37;1.30;;;1.00;;
17937;SDS011;16051;53.024;8.630;2022-08-30T18:10:39;1.07;;;0.97;;
17937;SDS011;16051;53.024;8.630;2022-08-30T18:14:42;1.53;;;0.90;;
17937;SDS011;16051;53.024;8.630;2022-08-30T18:18:47;1.83;;;0.90;;
17937;SDS011;16051;53.024;8.630;2022-08-30T18:22:49;1.00;;;0.80;;
17937;SDS011;16051;53.024;8.630;2022-08-30T18:26:52;1.03;;;0.80;;
17937;SDS011;16051;53.024;8.630;2022-08-30T18:30:55;2.13;;;0.90;;
17937;SDS011;16051;53.024;8.630;2022-08-30T18:35:12;1.43;;;0.90;;
17937;SDS011;16051;53.024;8.630;2022-08-30T18:39:14;2.10;;;0.70;;
17937;SDS011;16051;53.024;8.630;2022-08-30T18:43:16;3.73;;;1.40;;
17937;SDS011;16051;53.024;8.630;2022-08-30T18:47:19;1.10;;;0.83;;
17937;SDS011;16051;53.024;8.630;2022-08-30T18:51:23;3.20;;;1.00;;
17937;SDS011;16051;53.024;8.630;2022-08-30T18:55:26;2.47;;;1.00;;
17937;SDS011;16051;53.024;8.630;2022-08-30T18:59:28;1.50;;;0.90;;
17937;SDS011;16051;53.024;8.630;2022-08-30T19:07:54;1.40;;;0.90;;
17937;SDS011;16051;53.024;8.630;2022-08-30T19:11:56;2.47;;;1.13;;
17937;SDS011;16051;53.024;8.630;2022-08-30T19:15:58;1.90;;;0.90;;
17937;SDS011;16051;53.024;8.630;2022-08-30T19:20:01;2.90;;;1.03;;
17937;SDS011;16051;53.024;8.630;2022-08-30T19:24:06;1.17;;;0.83;;
17937;SDS011;16051;53.024;8.630;2022-08-30T19:28:23;2.80;;;1.00;;
17937;SDS011;16051;53.024;8.630;2022-08-30T19:32:25;1.27;;;1.00;;
17937;SDS011;16051;53.024;8.630;2022-08-30T19:36:28;1.53;;;1.07;;
17937;SDS011;16051;53.024;8.630;2022-08-30T19:40:31;2.27;;;1.00;;
17937;SDS011;16051;53.024;8.630;2022-08-30T19:44:33;2.23;;;1.07;;
17937;SDS011;16051;53.024;8.630;2022-08-30T19:48:36;1.80;;;1.00;;
17937;SDS011;16051;53.024;8.630;2022-08-30T19:52:42;1.87;;;1.20;;
17937;SDS011;16051;53.024;8.630;2022-08-30T19:56:46;1.37;;;0.80;;
17937;SDS011;16051;53.024;8.630;2022-08-30T20:00:48;2.23;;;1.20;;
17937;SDS011;16051;53.024;8.630;2022-08-30T20:05:01;1.10;;;0.87;;
17937;SDS011;16051;53.024;8.630;2022-08-30T20:09:04;1.37;;;0.90;;
17937;SDS011;16051;53.024;8.630;2022-08-30T20:13:15;1.30;;;0.90;;
17937;SDS011;16051;53.024;8.630;2022-08-30T20:17:19;1.60;;;0.87;;
17937;SDS011;16051;53.024;8.630;2022-08-30T20:21:22;0.97;;;0.67;;
17937;SDS011;16051;53.024;8.630;2022-08-30T20:25:24;0.90;;;0.70;;
17937;SDS011;16051;53.024;8.630;2022-08-30T20:29:27;2.03;;;0.97;;
17937;SDS011;16051;53.024;8.630;2022-08-30T20:33:29;1.70;;;0.80;;
17937;SDS011;16051;53.024;8.630;2022-08-30T20:37:32;1.23;;;0.70;;
17937;SDS011;16051;53.024;8.630;2022-08-30T20:41:35;0.70;;;0.60;;
17937;SDS011;16051;53.024;8.630;2022-08-30T20:45:39;1.43;;;0.70;;
17937;SDS011;16051;53.024;8.630;2022-08-30T20:49:41;2.77;;;0.83;;
17937;SDS011;16051;53.024;8.630;2022-08-30T20:53:43;0.90;;;0.70;;
17937;SDS011;16051;53.024;8.630;2022-08-30T21:02:08;0.63;;;0.63;;
17937;SDS011;16051;53.024;8.630;2022-08-30T21:06:10;2.17;;;0.70;;
17937;SDS011;16051;53.024;8.630;2022-08-30T21:10:13;0.67;;;0.50;;
17937;SDS011;16051;53.024;8.630;2022-08-30T21:14:16;1.10;;;0.83;;
17937;SDS011;16051;53.024;8.630;2022-08-30T21:18:22;0.67;;;0.67;;
17937;SDS011;16051;53.024;8.630;2022-08-30T21:22:28;0.90;;;0.50;;
17937;SDS011;16051;53.024;8.630;2022-08-30T21:26:35;1.00;;;0.80;;
17937;SDS011;16051;53.024;8.630;2022-08-30T21:30:38;0.80;;;0.70;;
17937;SDS011;16051;53.024;8.630;2022-08-30T21:34:41;1.10;;;0.80;;
17937;SDS011;16051;53.024;8.630;2022-08-30T21:39:01;1.97;;;1.00;;
17937;SDS011;16051;53.024;8.630;2022-08-30T21:43:04;0.97;;;0.97;;
17937;SDS011;16051;53.024;8.630;2022-08-30T21:47:06;1.27;;;1.27;;
17937;SDS011;16051;53.024;8.630;2022-08-30T21:51:10;0.97;;;0.97;;
17937;SDS011;16051;53.024;8.630;2022-08-30T21:55:13;0.97;;;0.97;;
17937;SDS011;16051;53.024;8.630;2022-08-30T21:59:15;0.90;;;0.90;;
17937;SDS011;16051;53.024;8.630;2022-08-30T22:03:18;0.90;;;0.90;;
17937;SDS011;16051;53.024;8.630;2022-08-30T22:07:22;1.00;;;1.00;;
17937;SDS011;16051;53.024;8.630;2022-08-30T22:11:24;0.80;;;0.80;;
17937;SDS011;16051;53.024;8.630;2022-08-30T22:15:27;1.00;;;1.00;;
17937;SDS011;16051;53.024;8.630;2022-08-30T22:19:30;1.17;;;1.10;;
17937;SDS011;16051;53.024;8.630;2022-08-30T22:23:35;1.97;;;1.10;;
17937;SDS011;16051;53.024;8.630;2022-08-30T22:27:38;0.70;;;0.70;;
17937;SDS011;16051;53.024;8.630;2022-08-30T22:31:40;0.67;;;0.67;;
17937;SDS011;16051;53.024;8.630;2022-08-30T22:35:43;1.17;;;1.00;;
17937;SDS011;16051;53.024;8.630;2022-08-30T22:39:49;0.77;;;0.77;;
17937;SDS011;16051;53.024;8.630;2022-08-30T22:43:51;0.60;;;0.60;;
17937;SDS011;16051;53.024;8.630;2022-08-30T22:47:54;0.83;;;0.63;;
17937;SDS011;16051;53.024;8.630;2022-08-30T22:52:02;0.80;;;0.60;;
17937;SDS011;16051;53.024;8.630;2022-08-30T22:56:08;0.53;;;0.50;;
17937;SDS011;16051;53.024;8.630;2022-08-30T23:00:12;0.67;;;0.43;;
17937;SDS011;16051;53.024;8.630;2022-08-30T23:04:18;0.87;;;0.50;;
17937;SDS011;16051;53.024;8.630;2022-08-30T23:08:20;1.30;;;0.70;;
17937;SDS011;16051;53.024;8.630;2022-08-30T23:12:24;1.00;;;0.80;;
17937;SDS011;16051;53.024;8.630;2022-08-30T23:16:26;0.80;;;0.80;;
17937;SDS011;16051;53.024;8.630;2022-08-30T23:20:29;0.80;;;0.50;;
17937;SDS011;16051;53.024;8.630;2022-08-30T23:24:34;1.30;;;0.63;;
17937;SDS011;16051;53.024;8.630;2022-08-30T23:28:55;0.80;;;0.67;;
17937;SDS011;16051;53.024;8.630;2022-08-30T23:33:15;0.60;;;0.60;;
17937;SDS011;16051;53.024;8.630;2022-08-30T23:37:35;0.60;;;0.60;;
17937;SDS011;16051;53.024;8.630;2022-08-30T23:41:55;0.80;;;0.80;;
17937;SDS011;16051;53.024;8.630;2022-08-30T23:46:16;0.87;;;0.70;;
17937;SDS011;16051;53.024;8.630;2022-08-30T23:50:36;1.03;;;0.90;;
17937;SDS011;16051;53.024;8.630;2022-08-30T23:54:55;0.40;;;0.37;;
17937;SDS011;16051;53.024;8.630;2022-08-30T23:59:15;0.33;;;0.33;;
